sensor_id;sensor_type;location;lat;lon;timestamp;temperature;humidity
66568;DHT22;53422;49.296;6.900;2023-07-31T00:00:11;19.90;90.40
66568;DHT22;53422;49.296;6.900;2023-07-31T00:02:39;19.90;91.90
66568;DHT22;53422;49.296;6.900;2023-07-31T00:05:06;19.90;92.10
66568;DHT22;53422;49.296;6.900;2023-07-31T00:07:32;19.90;90.60
66568;DHT22;53422;49.296;6.900;2023-07-31T00:10:00;19.90;91.00
66568;DHT22;53422;49.296;6.900;2023-07-31T00:12:26;19.90;92.00
66568;DHT22;53422;49.296;6.900;2023-07-31T00:14:53;19.90;90.50
66568;DHT22;53422;49.296;6.900;2023-07-31T00:17:21;19.90;91.80
66568;DHT22;53422;49.296;6.900;2023-07-31T00:19:46;19.90;90.20
66568;DHT22;53422;49.296;6.900;2023-07-31T00:22:14;19.90;91.10
66568;DHT22;53422;49.296;6.900;2023-07-31T00:24:41;19.90;90.80
66568;DHT22;53422;49.296;6.900;2023-07-31T00:27:07;19.90;92.00
66568;DHT22;53422;49.296;6.900;2023-07-31T00:29:33;19.80;89.10
66568;DHT22;53422;49.296;6.900;2023-07-31T00:31:59;19.80;89.20
66568;DHT22;53422;49.296;6.900;2023-07-31T00:34:26;19.80;91.30
66568;DHT22;53422;49.296;6.900;2023-07-31T00:36:55;19.80;92.40
66568;DHT22;53422;49.296;6.900;2023-07-31T00:39:23;19.80;90.80
66568;DHT22;53422;49.296;6.900;2023-07-31T00:41:51;19.70;92.10
66568;DHT22;53422;49.296;6.900;2023-07-31T00:44:19;19.70;91.10
66568;DHT22;53422;49.296;6.900;2023-07-31T00:46:49;19.70;92.30
66568;DHT22;53422;49.296;6.900;2023-07-31T00:49:16;19.60;91.00
66568;DHT22;53422;49.296;6.900;2023-07-31T00:51:43;19.60;90.00
66568;DHT22;53422;49.296;6.900;2023-07-31T00:54:11;19.70;91.00
66568;DHT22;53422;49.296;6.900;2023-07-31T00:56:43;19.70;92.10
66568;DHT22;53422;49.296;6.900;2023-07-31T00:59:11;19.70;91.80
66568;DHT22;53422;49.296;6.900;2023-07-31T01:01:37;19.70;91.80
66568;DHT22;53422;49.296;6.900;2023-07-31T01:04:04;19.70;90.40
66568;DHT22;53422;49.296;6.900;2023-07-31T01:09:44;19.60;92.80
66568;DHT22;53422;49.296;6.900;2023-07-31T01:12:15;19.60;91.90
66568;DHT22;53422;49.296;6.900;2023-07-31T01:14:52;19.60;91.90
66568;DHT22;53422;49.296;6.900;2023-07-31T01:17:28;19.60;92.80
66568;DHT22;53422;49.296;6.900;2023-07-31T01:20:01;19.60;91.80
66568;DHT22;53422;49.296;6.900;2023-07-31T01:28:19;19.60;93.20
66568;DHT22;53422;49.296;6.900;2023-07-31T01:30:48;19.60;93.20
66568;DHT22;53422;49.296;6.900;2023-07-31T01:33:16;19.60;92.80
66568;DHT22;53422;49.296;6.900;2023-07-31T01:35:45;19.60;92.80
66568;DHT22;53422;49.296;6.900;2023-07-31T01:38:12;19.60;91.00
66568;DHT22;53422;49.296;6.900;2023-07-31T01:40:41;19.60;91.80
66568;DHT22;53422;49.296;6.900;2023-07-31T01:43:10;19.60;93.60
66568;DHT22;53422;49.296;6.900;2023-07-31T01:45:38;19.60;92.50
66568;DHT22;53422;49.296;6.900;2023-07-31T01:48:04;19.60;93.40
66568;DHT22;53422;49.296;6.900;2023-07-31T01:50:31;19.50;92.90
66568;DHT22;53422;49.296;6.900;2023-07-31T01:53:01;19.60;93.50
66568;DHT22;53422;49.296;6.900;2023-07-31T01:55:37;19.60;93.50
66568;DHT22;53422;49.296;6.900;2023-07-31T01:58:03;19.60;93.00
66568;DHT22;53422;49.296;6.900;2023-07-31T02:00:30;19.60;92.80
66568;DHT22;53422;49.296;6.900;2023-07-31T02:02:56;19.60;92.50
66568;DHT22;53422;49.296;6.900;2023-07-31T02:05:23;19.50;91.40
66568;DHT22;53422;49.296;6.900;2023-07-31T02:07:58;19.50;92.80
66568;DHT22;53422;49.296;6.900;2023-07-31T02:10:25;19.50;92.80
66568;DHT22;53422;49.296;6.900;2023-07-31T02:12:52;19.50;93.10
66568;DHT22;53422;49.296;6.900;2023-07-31T02:15:17;19.50;94.10
66568;DHT22;53422;49.296;6.900;2023-07-31T02:17:45;19.50;93.10
66568;DHT22;53422;49.296;6.900;2023-07-31T02:20:12;19.50;92.50
66568;DHT22;53422;49.296;6.900;2023-07-31T02:22:39;19.50;93.50
66568;DHT22;53422;49.296;6.900;2023-07-31T02:25:08;19.50;94.30
66568;DHT22;53422;49.296;6.900;2023-07-31T02:27:37;19.50;93.40
66568;DHT22;53422;49.296;6.900;2023-07-31T02:30:03;19.50;92.60
66568;DHT22;53422;49.296;6.900;2023-07-31T02:32:30;19.50;93.70
66568;DHT22;53422;49.296;6.900;2023-07-31T02:34:56;19.50;93.90
66568;DHT22;53422;49.296;6.900;2023-07-31T02:37:23;19.50;92.80
66568;DHT22;53422;49.296;6.900;2023-07-31T02:39:53;19.50;94.00
66568;DHT22;53422;49.296;6.900;2023-07-31T02:42:23;19.50;93.40
66568;DHT22;53422;49.296;6.900;2023-07-31T02:44:50;19.50;94.00
66568;DHT22;53422;49.296;6.900;2023-07-31T02:47:21;19.50;93.60
66568;DHT22;53422;49.296;6.900;2023-07-31T02:49:48;19.40;92.10
66568;DHT22;53422;49.296;6.900;2023-07-31T02:52:16;19.40;93.80
66568;DHT22;53422;49.296;6.900;2023-07-31T02:54:43;19.40;92.30
66568;DHT22;53422;49.296;6.900;2023-07-31T02:57:10;19.40;93.50
66568;DHT22;53422;49.296;6.900;2023-07-31T02:59:37;19.40;93.90
66568;DHT22;53422;49.296;6.900;2023-07-31T03:02:05;19.40;93.60
66568;DHT22;53422;49.296;6.900;2023-07-31T03:04:31;19.40;94.30
66568;DHT22;53422;49.296;6.900;2023-07-31T03:06:59;19.40;94.10
66568;DHT22;53422;49.296;6.900;2023-07-31T03:09:25;19.40;94.30
66568;DHT22;53422;49.296;6.900;2023-07-31T03:11:56;19.40;93.30
66568;DHT22;53422;49.296;6.900;2023-07-31T03:14:24;19.40;94.40
66568;DHT22;53422;49.296;6.900;2023-07-31T03:16:52;19.40;94.70
66568;DHT22;53422;49.296;6.900;2023-07-31T03:19:20;19.40;94.00
66568;DHT22;53422;49.296;6.900;2023-07-31T03:21:46;19.30;94.50
66568;DHT22;53422;49.296;6.900;2023-07-31T03:24:13;19.40;93.70
66568;DHT22;53422;49.296;6.900;2023-07-31T03:26:40;19.30;95.00
66568;DHT22;53422;49.296;6.900;2023-07-31T03:29:12;19.40;94.60
66568;DHT22;53422;49.296;6.900;2023-07-31T03:31:41;19.30;94.60
66568;DHT22;53422;49.296;6.900;2023-07-31T03:34:08;19.30;93.90
66568;DHT22;53422;49.296;6.900;2023-07-31T03:36:35;19.30;94.80
66568;DHT22;53422;49.296;6.900;2023-07-31T03:39:02;19.10;93.60
66568;DHT22;53422;49.296;6.900;2023-07-31T03:41:28;19.20;93.80
66568;DHT22;53422;49.296;6.900;2023-07-31T03:43:54;19.20;93.70
66568;DHT22;53422;49.296;6.900;2023-07-31T03:46:26;19.20;93.20
66568;DHT22;53422;49.296;6.900;2023-07-31T03:48:52;19.20;94.10
66568;DHT22;53422;49.296;6.900;2023-07-31T03:51:19;19.10;93.60
66568;DHT22;53422;49.296;6.900;2023-07-31T03:53:46;19.10;93.50
66568;DHT22;53422;49.296;6.900;2023-07-31T03:56:14;19.10;94.00
66568;DHT22;53422;49.296;6.900;2023-07-31T03:58:44;19.20;94.50
66568;DHT22;53422;49.296;6.900;2023-07-31T04:01:12;19.10;93.30
66568;DHT22;53422;49.296;6.900;2023-07-31T04:03:41;19.10;94.40
66568;DHT22;53422;49.296;6.900;2023-07-31T04:06:11;19.20;94.90
66568;DHT22;53422;49.296;6.900;2023-07-31T04:08:37;19.20;93.70
66568;DHT22;53422;49.296;6.900;2023-07-31T04:11:04;19.10;94.60
66568;DHT22;53422;49.296;6.900;2023-07-31T04:13:35;19.00;94.40
66568;DHT22;53422;49.296;6.900;2023-07-31T04:16:01;19.00;94.50
66568;DHT22;53422;49.296;6.900;2023-07-31T04:18:28;18.90;94.00
66568;DHT22;53422;49.296;6.900;2023-07-31T04:20:56;19.00;95.00
66568;DHT22;53422;49.296;6.900;2023-07-31T04:23:33;19.00;94.20
66568;DHT22;53422;49.296;6.900;2023-07-31T04:25:58;19.00;94.60
66568;DHT22;53422;49.296;6.900;2023-07-31T04:28:24;19.00;94.60
66568;DHT22;53422;49.296;6.900;2023-07-31T04:30:56;19.00;94.00
66568;DHT22;53422;49.296;6.900;2023-07-31T04:33:23;19.00;95.30
66568;DHT22;53422;49.296;6.900;2023-07-31T04:35:53;19.00;94.30
66568;DHT22;53422;49.296;6.900;2023-07-31T04:38:20;19.00;95.20
66568;DHT22;53422;49.296;6.900;2023-07-31T04:40:46;19.00;96.00
66568;DHT22;53422;49.296;6.900;2023-07-31T04:43:11;19.00;95.40
66568;DHT22;53422;49.296;6.900;2023-07-31T04:45:37;19.00;95.10
66568;DHT22;53422;49.296;6.900;2023-07-31T04:48:03;19.00;95.90
66568;DHT22;53422;49.296;6.900;2023-07-31T04:50:28;19.00;95.00
66568;DHT22;53422;49.296;6.900;2023-07-31T04:52:56;19.00;96.30
66568;DHT22;53422;49.296;6.900;2023-07-31T04:55:21;19.10;94.60
66568;DHT22;53422;49.296;6.900;2023-07-31T04:57:47;19.00;95.80
66568;DHT22;53422;49.296;6.900;2023-07-31T05:00:13;19.00;95.40
66568;DHT22;53422;49.296;6.900;2023-07-31T05:02:38;18.90;95.40
66568;DHT22;53422;49.296;6.900;2023-07-31T05:05:04;18.90;95.60
66568;DHT22;53422;49.296;6.900;2023-07-31T05:07:30;19.00;95.50
66568;DHT22;53422;49.296;6.900;2023-07-31T05:09:55;19.00;96.90
66568;DHT22;53422;49.296;6.900;2023-07-31T05:12:21;19.00;95.70
66568;DHT22;53422;49.296;6.900;2023-07-31T05:14:47;19.00;96.30
66568;DHT22;53422;49.296;6.900;2023-07-31T05:17:12;19.00;96.50
66568;DHT22;53422;49.296;6.900;2023-07-31T05:19:38;19.00;96.80
66568;DHT22;53422;49.296;6.900;2023-07-31T05:22:04;19.10;96.00
66568;DHT22;53422;49.296;6.900;2023-07-31T05:24:30;19.10;96.80
66568;DHT22;53422;49.296;6.900;2023-07-31T05:26:56;19.10;95.70
66568;DHT22;53422;49.296;6.900;2023-07-31T05:29:22;19.00;96.10
66568;DHT22;53422;49.296;6.900;2023-07-31T05:31:47;19.10;97.00
66568;DHT22;53422;49.296;6.900;2023-07-31T05:34:13;19.10;96.60
66568;DHT22;53422;49.296;6.900;2023-07-31T05:36:39;19.00;95.90
66568;DHT22;53422;49.296;6.900;2023-07-31T05:39:05;19.00;95.40
66568;DHT22;53422;49.296;6.900;2023-07-31T05:41:35;19.00;97.00
66568;DHT22;53422;49.296;6.900;2023-07-31T05:44:01;19.00;96.90
66568;DHT22;53422;49.296;6.900;2023-07-31T05:46:26;19.00;97.10
66568;DHT22;53422;49.296;6.900;2023-07-31T05:48:52;19.00;97.50
66568;DHT22;53422;49.296;6.900;2023-07-31T05:51:17;19.10;97.00
66568;DHT22;53422;49.296;6.900;2023-07-31T05:53:43;19.00;96.80
66568;DHT22;53422;49.296;6.900;2023-07-31T05:56:10;19.10;97.10
66568;DHT22;53422;49.296;6.900;2023-07-31T05:58:36;19.10;96.30
66568;DHT22;53422;49.296;6.900;2023-07-31T06:01:01;19.00;96.10
66568;DHT22;53422;49.296;6.900;2023-07-31T06:03:27;19.10;96.70
66568;DHT22;53422;49.296;6.900;2023-07-31T06:05:52;19.00;96.00
66568;DHT22;53422;49.296;6.900;2023-07-31T06:08:18;19.10;96.90
66568;DHT22;53422;49.296;6.900;2023-07-31T06:10:44;19.10;95.20
66568;DHT22;53422;49.296;6.900;2023-07-31T06:13:10;19.10;96.20
66568;DHT22;53422;49.296;6.900;2023-07-31T06:15:35;19.10;96.20
66568;DHT22;53422;49.296;6.900;2023-07-31T06:18:01;19.20;96.70
66568;DHT22;53422;49.296;6.900;2023-07-31T06:20:28;19.20;96.40
66568;DHT22;53422;49.296;6.900;2023-07-31T06:22:54;19.20;96.60
66568;DHT22;53422;49.296;6.900;2023-07-31T06:25:19;19.20;96.30
66568;DHT22;53422;49.296;6.900;2023-07-31T06:27:45;19.20;97.00
66568;DHT22;53422;49.296;6.900;2023-07-31T06:30:11;19.30;96.20
66568;DHT22;53422;49.296;6.900;2023-07-31T06:32:37;19.20;96.00
66568;DHT22;53422;49.296;6.900;2023-07-31T06:35:03;19.30;96.90
66568;DHT22;53422;49.296;6.900;2023-07-31T06:37:28;19.40;97.40
66568;DHT22;53422;49.296;6.900;2023-07-31T06:39:54;19.30;95.90
66568;DHT22;53422;49.296;6.900;2023-07-31T06:42:19;19.40;96.30
66568;DHT22;53422;49.296;6.900;2023-07-31T06:44:45;19.30;96.50
66568;DHT22;53422;49.296;6.900;2023-07-31T06:47:11;19.40;96.50
66568;DHT22;53422;49.296;6.900;2023-07-31T06:49:37;19.40;96.10
66568;DHT22;53422;49.296;6.900;2023-07-31T06:52:02;19.40;96.10
66568;DHT22;53422;49.296;6.900;2023-07-31T06:54:28;19.40;95.70
66568;DHT22;53422;49.296;6.900;2023-07-31T06:56:54;19.50;96.70
66568;DHT22;53422;49.296;6.900;2023-07-31T06:59:19;19.60;96.20
66568;DHT22;53422;49.296;6.900;2023-07-31T07:01:45;19.60;96.20
66568;DHT22;53422;49.296;6.900;2023-07-31T07:04:11;19.60;96.80
66568;DHT22;53422;49.296;6.900;2023-07-31T07:06:36;19.70;96.80
66568;DHT22;53422;49.296;6.900;2023-07-31T07:09:02;19.70;96.50
66568;DHT22;53422;49.296;6.900;2023-07-31T07:11:28;19.70;96.00
66568;DHT22;53422;49.296;6.900;2023-07-31T07:13:54;19.80;96.80
66568;DHT22;53422;49.296;6.900;2023-07-31T07:16:20;19.80;96.40
66568;DHT22;53422;49.296;6.900;2023-07-31T07:18:46;19.80;95.60
66568;DHT22;53422;49.296;6.900;2023-07-31T07:21:11;19.80;96.20
66568;DHT22;53422;49.296;6.900;2023-07-31T07:23:42;19.90;97.00
66568;DHT22;53422;49.296;6.900;2023-07-31T07:26:07;19.90;95.90
66568;DHT22;53422;49.296;6.900;2023-07-31T07:28:33;19.90;96.40
66568;DHT22;53422;49.296;6.900;2023-07-31T07:30:58;19.90;97.10
66568;DHT22;53422;49.296;6.900;2023-07-31T07:33:25;19.90;95.90
66568;DHT22;53422;49.296;6.900;2023-07-31T07:35:51;19.90;95.70
66568;DHT22;53422;49.296;6.900;2023-07-31T07:38:17;20.00;96.00
66568;DHT22;53422;49.296;6.900;2023-07-31T07:40:44;20.00;96.80
66568;DHT22;53422;49.296;6.900;2023-07-31T07:43:12;20.00;95.60
66568;DHT22;53422;49.296;6.900;2023-07-31T07:45:37;20.00;95.60
66568;DHT22;53422;49.296;6.900;2023-07-31T07:48:03;19.90;95.20
66568;DHT22;53422;49.296;6.900;2023-07-31T07:50:29;20.00;95.80
66568;DHT22;53422;49.296;6.900;2023-07-31T07:52:55;20.10;95.60
66568;DHT22;53422;49.296;6.900;2023-07-31T07:55:20;20.10;96.20
66568;DHT22;53422;49.296;6.900;2023-07-31T07:57:46;20.10;96.50
66568;DHT22;53422;49.296;6.900;2023-07-31T08:00:13;20.20;96.30
66568;DHT22;53422;49.296;6.900;2023-07-31T08:02:38;20.20;95.40
66568;DHT22;53422;49.296;6.900;2023-07-31T08:05:04;20.20;96.70
66568;DHT22;53422;49.296;6.900;2023-07-31T08:07:30;20.30;95.40
66568;DHT22;53422;49.296;6.900;2023-07-31T08:09:55;20.30;96.70
66568;DHT22;53422;49.296;6.900;2023-07-31T08:12:21;20.30;95.60
66568;DHT22;53422;49.296;6.900;2023-07-31T08:14:46;20.40;95.20
66568;DHT22;53422;49.296;6.900;2023-07-31T08:17:12;20.40;95.00
66568;DHT22;53422;49.296;6.900;2023-07-31T08:19:38;20.40;95.20
66568;DHT22;53422;49.296;6.900;2023-07-31T08:22:03;20.50;95.20
66568;DHT22;53422;49.296;6.900;2023-07-31T08:24:29;20.50;94.60
66568;DHT22;53422;49.296;6.900;2023-07-31T08:26:54;20.50;94.00
66568;DHT22;53422;49.296;6.900;2023-07-31T08:29:20;20.50;94.70
66568;DHT22;53422;49.296;6.900;2023-07-31T08:31:46;20.50;94.30
66568;DHT22;53422;49.296;6.900;2023-07-31T08:34:11;20.60;94.60
66568;DHT22;53422;49.296;6.900;2023-07-31T08:36:37;20.60;94.80
66568;DHT22;53422;49.296;6.900;2023-07-31T08:39:03;20.70;94.40
66568;DHT22;53422;49.296;6.900;2023-07-31T08:41:29;20.80;94.10
66568;DHT22;53422;49.296;6.900;2023-07-31T08:43:55;20.80;94.20
66568;DHT22;53422;49.296;6.900;2023-07-31T08:46:22;20.90;93.70
66568;DHT22;53422;49.296;6.900;2023-07-31T08:48:47;21.00;94.60
66568;DHT22;53422;49.296;6.900;2023-07-31T08:51:16;21.00;95.00
66568;DHT22;53422;49.296;6.900;2023-07-31T08:53:42;21.10;94.60
66568;DHT22;53422;49.296;6.900;2023-07-31T08:56:08;21.30;93.40
66568;DHT22;53422;49.296;6.900;2023-07-31T08:58:35;21.30;94.20
66568;DHT22;53422;49.296;6.900;2023-07-31T09:01:04;21.40;93.90
66568;DHT22;53422;49.296;6.900;2023-07-31T09:03:33;21.50;92.80
66568;DHT22;53422;49.296;6.900;2023-07-31T09:05:59;21.60;92.60
66568;DHT22;53422;49.296;6.900;2023-07-31T09:08:27;21.70;91.00
66568;DHT22;53422;49.296;6.900;2023-07-31T09:10:59;21.80;91.20
66568;DHT22;53422;49.296;6.900;2023-07-31T09:13:26;22.00;89.20
66568;DHT22;53422;49.296;6.900;2023-07-31T09:15:52;22.00;90.20
66568;DHT22;53422;49.296;6.900;2023-07-31T09:18:18;22.10;85.60
66568;DHT22;53422;49.296;6.900;2023-07-31T09:21:00;22.10;89.70
66568;DHT22;53422;49.296;6.900;2023-07-31T09:23:43;22.20;88.70
66568;DHT22;53422;49.296;6.900;2023-07-31T09:26:09;22.30;87.70
66568;DHT22;53422;49.296;6.900;2023-07-31T09:28:35;22.30;83.20
66568;DHT22;53422;49.296;6.900;2023-07-31T09:31:01;22.40;83.90
66568;DHT22;53422;49.296;6.900;2023-07-31T09:33:26;22.40;82.00
66568;DHT22;53422;49.296;6.900;2023-07-31T09:35:52;22.40;80.90
66568;DHT22;53422;49.296;6.900;2023-07-31T09:38:18;22.40;80.90
66568;DHT22;53422;49.296;6.900;2023-07-31T09:40:46;22.40;82.90
66568;DHT22;53422;49.296;6.900;2023-07-31T09:43:22;22.40;80.50
66568;DHT22;53422;49.296;6.900;2023-07-31T09:45:48;22.40;81.80
66568;DHT22;53422;49.296;6.900;2023-07-31T09:48:18;22.40;80.80
66568;DHT22;53422;49.296;6.900;2023-07-31T09:50:46;22.40;81.00
66568;DHT22;53422;49.296;6.900;2023-07-31T09:53:12;22.40;79.50
66568;DHT22;53422;49.296;6.900;2023-07-31T09:55:38;22.40;80.50
66568;DHT22;53422;49.296;6.900;2023-07-31T09:58:09;22.40;80.40
66568;DHT22;53422;49.296;6.900;2023-07-31T10:00:35;22.40;80.10
66568;DHT22;53422;49.296;6.900;2023-07-31T10:03:05;22.40;79.60
66568;DHT22;53422;49.296;6.900;2023-07-31T10:05:39;22.30;77.30
66568;DHT22;53422;49.296;6.900;2023-07-31T10:08:06;22.20;79.10
66568;DHT22;53422;49.296;6.900;2023-07-31T10:10:32;22.20;78.90
66568;DHT22;53422;49.296;6.900;2023-07-31T10:12:59;22.10;78.30
66568;DHT22;53422;49.296;6.900;2023-07-31T10:15:25;22.10;79.40
66568;DHT22;53422;49.296;6.900;2023-07-31T10:17:52;22.10;80.80
66568;DHT22;53422;49.296;6.900;2023-07-31T10:20:20;22.10;77.10
66568;DHT22;53422;49.296;6.900;2023-07-31T10:22:46;22.10;77.80
66568;DHT22;53422;49.296;6.900;2023-07-31T10:25:14;22.10;79.90
66568;DHT22;53422;49.296;6.900;2023-07-31T10:27:40;22.10;79.50
66568;DHT22;53422;49.296;6.900;2023-07-31T10:30:10;22.10;79.60
66568;DHT22;53422;49.296;6.900;2023-07-31T10:32:38;22.00;81.30
66568;DHT22;53422;49.296;6.900;2023-07-31T10:35:06;22.00;81.30
66568;DHT22;53422;49.296;6.900;2023-07-31T10:37:40;22.10;83.80
66568;DHT22;53422;49.296;6.900;2023-07-31T10:40:23;22.10;81.20
66568;DHT22;53422;49.296;6.900;2023-07-31T10:45:41;22.10;82.50
66568;DHT22;53422;49.296;6.900;2023-07-31T10:48:13;22.10;81.40
66568;DHT22;53422;49.296;6.900;2023-07-31T10:50:47;22.00;81.20
66568;DHT22;53422;49.296;6.900;2023-07-31T10:53:29;22.10;81.60
66568;DHT22;53422;49.296;6.900;2023-07-31T10:55:58;22.20;82.60
66568;DHT22;53422;49.296;6.900;2023-07-31T10:58:24;22.20;82.60
66568;DHT22;53422;49.296;6.900;2023-07-31T11:00:55;22.20;82.40
66568;DHT22;53422;49.296;6.900;2023-07-31T11:03:25;22.20;82.60
66568;DHT22;53422;49.296;6.900;2023-07-31T11:06:01;22.30;82.50
66568;DHT22;53422;49.296;6.900;2023-07-31T11:08:33;22.30;83.10
66568;DHT22;53422;49.296;6.900;2023-07-31T11:13:39;22.30;82.40
66568;DHT22;53422;49.296;6.900;2023-07-31T11:16:05;22.30;82.20
66568;DHT22;53422;49.296;6.900;2023-07-31T11:18:30;22.30;83.80
66568;DHT22;53422;49.296;6.900;2023-07-31T11:20:56;22.30;83.90
66568;DHT22;53422;49.296;6.900;2023-07-31T11:23:22;22.30;81.90
66568;DHT22;53422;49.296;6.900;2023-07-31T11:25:48;22.30;81.40
66568;DHT22;53422;49.296;6.900;2023-07-31T11:28:16;22.30;81.70
66568;DHT22;53422;49.296;6.900;2023-07-31T11:30:43;22.20;81.90
66568;DHT22;53422;49.296;6.900;2023-07-31T11:33:10;22.30;82.90
66568;DHT22;53422;49.296;6.900;2023-07-31T11:35:42;22.30;81.80
66568;DHT22;53422;49.296;6.900;2023-07-31T11:38:09;22.20;80.20
66568;DHT22;53422;49.296;6.900;2023-07-31T11:40:44;22.20;82.40
66568;DHT22;53422;49.296;6.900;2023-07-31T11:43:10;22.20;82.20
66568;DHT22;53422;49.296;6.900;2023-07-31T11:45:37;22.20;81.60
66568;DHT22;53422;49.296;6.900;2023-07-31T11:48:03;22.10;81.10
66568;DHT22;53422;49.296;6.900;2023-07-31T11:50:33;22.10;79.50
66568;DHT22;53422;49.296;6.900;2023-07-31T11:53:01;22.10;80.20
66568;DHT22;53422;49.296;6.900;2023-07-31T11:55:28;22.10;79.40
66568;DHT22;53422;49.296;6.900;2023-07-31T11:57:56;22.00;80.50
66568;DHT22;53422;49.296;6.900;2023-07-31T12:00:23;21.90;80.50
66568;DHT22;53422;49.296;6.900;2023-07-31T12:02:50;21.90;81.80
66568;DHT22;53422;49.296;6.900;2023-07-31T12:05:16;21.80;80.40
66568;DHT22;53422;49.296;6.900;2023-07-31T12:07:54;21.90;80.90
66568;DHT22;53422;49.296;6.900;2023-07-31T12:10:38;21.90;82.60
66568;DHT22;53422;49.296;6.900;2023-07-31T12:13:11;22.00;81.70
66568;DHT22;53422;49.296;6.900;2023-07-31T12:15:44;21.60;77.50
66568;DHT22;53422;49.296;6.900;2023-07-31T12:18:12;21.50;81.10
66568;DHT22;53422;49.296;6.900;2023-07-31T12:20:46;21.40;81.80
66568;DHT22;53422;49.296;6.900;2023-07-31T12:25:44;21.50;83.80
66568;DHT22;53422;49.296;6.900;2023-07-31T12:28:10;21.40;81.30
66568;DHT22;53422;49.296;6.900;2023-07-31T12:30:40;21.30;80.60
66568;DHT22;53422;49.296;6.900;2023-07-31T12:33:15;21.20;82.70
66568;DHT22;53422;49.296;6.900;2023-07-31T12:35:45;21.10;82.70
66568;DHT22;53422;49.296;6.900;2023-07-31T12:38:12;21.20;84.00
66568;DHT22;53422;49.296;6.900;2023-07-31T12:40:39;21.40;82.80
66568;DHT22;53422;49.296;6.900;2023-07-31T12:43:05;21.50;81.30
66568;DHT22;53422;49.296;6.900;2023-07-31T12:45:32;21.60;81.60
66568;DHT22;53422;49.296;6.900;2023-07-31T12:48:01;21.70;81.50
66568;DHT22;53422;49.296;6.900;2023-07-31T12:50:27;21.60;80.40
66568;DHT22;53422;49.296;6.900;2023-07-31T12:52:56;21.60;80.80
66568;DHT22;53422;49.296;6.900;2023-07-31T12:55:22;21.60;82.50
66568;DHT22;53422;49.296;6.900;2023-07-31T12:57:49;21.70;82.10
66568;DHT22;53422;49.296;6.900;2023-07-31T13:00:15;21.60;82.50
66568;DHT22;53422;49.296;6.900;2023-07-31T13:02:41;21.60;83.40
66568;DHT22;53422;49.296;6.900;2023-07-31T13:05:07;21.70;83.70
66568;DHT22;53422;49.296;6.900;2023-07-31T13:07:32;21.60;82.80
66568;DHT22;53422;49.296;6.900;2023-07-31T13:09:58;21.70;82.80
66568;DHT22;53422;49.296;6.900;2023-07-31T13:12:24;21.70;84.00
66568;DHT22;53422;49.296;6.900;2023-07-31T13:14:50;21.70;86.20
66568;DHT22;53422;49.296;6.900;2023-07-31T13:17:16;21.80;84.90
66568;DHT22;53422;49.296;6.900;2023-07-31T13:19:42;21.80;85.20
66568;DHT22;53422;49.296;6.900;2023-07-31T13:22:08;21.80;86.20
66568;DHT22;53422;49.296;6.900;2023-07-31T13:24:33;21.90;86.40
66568;DHT22;53422;49.296;6.900;2023-07-31T13:26:59;21.90;88.00
66568;DHT22;53422;49.296;6.900;2023-07-31T13:29:25;22.00;85.40
66568;DHT22;53422;49.296;6.900;2023-07-31T13:31:52;22.10;87.00
66568;DHT22;53422;49.296;6.900;2023-07-31T13:34:18;22.20;86.70
66568;DHT22;53422;49.296;6.900;2023-07-31T13:36:44;22.20;86.90
66568;DHT22;53422;49.296;6.900;2023-07-31T13:39:09;22.30;84.60
66568;DHT22;53422;49.296;6.900;2023-07-31T13:41:35;22.40;86.20
66568;DHT22;53422;49.296;6.900;2023-07-31T13:44:00;22.60;82.20
66568;DHT22;53422;49.296;6.900;2023-07-31T13:46:26;22.60;83.90
66568;DHT22;53422;49.296;6.900;2023-07-31T13:48:52;22.70;84.70
66568;DHT22;53422;49.296;6.900;2023-07-31T13:51:23;22.80;84.00
66568;DHT22;53422;49.296;6.900;2023-07-31T13:53:49;22.90;81.50
66568;DHT22;53422;49.296;6.900;2023-07-31T13:56:14;23.00;82.10
66568;DHT22;53422;49.296;6.900;2023-07-31T13:58:40;23.10;78.10
66568;DHT22;53422;49.296;6.900;2023-07-31T14:01:06;23.10;80.60
66568;DHT22;53422;49.296;6.900;2023-07-31T14:03:31;23.20;80.60
66568;DHT22;53422;49.296;6.900;2023-07-31T14:05:57;23.20;78.80
66568;DHT22;53422;49.296;6.900;2023-07-31T14:08:23;23.30;77.90
66568;DHT22;53422;49.296;6.900;2023-07-31T14:10:48;23.20;79.90
66568;DHT22;53422;49.296;6.900;2023-07-31T14:13:14;23.30;79.40
66568;DHT22;53422;49.296;6.900;2023-07-31T14:15:42;23.30;80.20
66568;DHT22;53422;49.296;6.900;2023-07-31T14:18:08;23.30;84.00
66568;DHT22;53422;49.296;6.900;2023-07-31T14:20:34;23.20;83.30
66568;DHT22;53422;49.296;6.900;2023-07-31T14:23:00;23.30;82.10
66568;DHT22;53422;49.296;6.900;2023-07-31T14:25:26;23.30;82.00
66568;DHT22;53422;49.296;6.900;2023-07-31T14:27:52;23.30;80.50
66568;DHT22;53422;49.296;6.900;2023-07-31T14:30:17;23.30;80.70
66568;DHT22;53422;49.296;6.900;2023-07-31T14:32:44;23.30;79.80
66568;DHT22;53422;49.296;6.900;2023-07-31T14:35:09;23.30;76.00
66568;DHT22;53422;49.296;6.900;2023-07-31T14:37:43;23.30;77.40
66568;DHT22;53422;49.296;6.900;2023-07-31T14:40:10;23.30;77.40
66568;DHT22;53422;49.296;6.900;2023-07-31T14:42:37;23.30;76.40
66568;DHT22;53422;49.296;6.900;2023-07-31T14:45:05;23.20;76.80
66568;DHT22;53422;49.296;6.900;2023-07-31T14:47:31;23.20;76.70
66568;DHT22;53422;49.296;6.900;2023-07-31T14:49:58;23.20;75.70
66568;DHT22;53422;49.296;6.900;2023-07-31T14:52:24;23.20;76.20
66568;DHT22;53422;49.296;6.900;2023-07-31T14:54:50;23.20;75.80
66568;DHT22;53422;49.296;6.900;2023-07-31T14:57:15;23.20;77.20
66568;DHT22;53422;49.296;6.900;2023-07-31T14:59:41;23.20;75.80
66568;DHT22;53422;49.296;6.900;2023-07-31T15:02:08;23.20;76.90
66568;DHT22;53422;49.296;6.900;2023-07-31T15:04:35;23.20;77.20
66568;DHT22;53422;49.296;6.900;2023-07-31T15:07:01;23.20;76.40
66568;DHT22;53422;49.296;6.900;2023-07-31T15:09:26;23.20;77.30
66568;DHT22;53422;49.296;6.900;2023-07-31T15:11:52;23.20;78.30
66568;DHT22;53422;49.296;6.900;2023-07-31T15:14:18;23.20;79.70
66568;DHT22;53422;49.296;6.900;2023-07-31T15:16:43;23.20;78.60
66568;DHT22;53422;49.296;6.900;2023-07-31T15:19:09;23.10;77.10
66568;DHT22;53422;49.296;6.900;2023-07-31T15:21:36;23.10;79.00
66568;DHT22;53422;49.296;6.900;2023-07-31T15:24:02;23.00;79.20
66568;DHT22;53422;49.296;6.900;2023-07-31T15:26:28;23.00;79.20
66568;DHT22;53422;49.296;6.900;2023-07-31T15:29:02;23.10;79.80
66568;DHT22;53422;49.296;6.900;2023-07-31T15:31:31;23.00;79.00
66568;DHT22;53422;49.296;6.900;2023-07-31T15:33:57;23.00;78.70
66568;DHT22;53422;49.296;6.900;2023-07-31T15:36:22;22.90;79.60
66568;DHT22;53422;49.296;6.900;2023-07-31T15:38:48;22.80;78.10
66568;DHT22;53422;49.296;6.900;2023-07-31T15:41:17;22.80;78.70
66568;DHT22;53422;49.296;6.900;2023-07-31T15:43:43;22.70;78.90
66568;DHT22;53422;49.296;6.900;2023-07-31T15:46:08;22.70;78.10